Seadream 1 — C6PW8 — position and weather

sailwx.info

Track history (hours):
 
Tides and Currents Weather Stations Pressure Air Temp Water Temp Dewpoint Dewpoint Depression Visibility Wind Speed Wind Dir Waves Ship Positions

Seadream 1

Last reported at 2017-Mar-30 15:11 UTC. Time now 2017-Apr-25 12:32 UTC.
Position N 15°52' W 061°35'.
Warning: this ship's position is 25 days out of date.

Length 105 m; draft 4.3 m.

Type: Ship. MMSI: 308908000.

Date/timePositionNaut miles runAvg speedWind from/ knotsBaromVisibWave heightAir tempDewpointWater temp
2017-Mar-30 15:11N 15°52' W 061°35'0 0.0
2017-Mar-30 12:31N 15°52' W 061°35'7 3.6
2017-Mar-30 10:29N 15°55' W 061°42'7 7.8
2017-Mar-30 09:33N 16°01' W 061°47'8 7.4
2017-Mar-30 08:29N 16°07' W 061°52'7 7.2
2017-Mar-30 07:28N 16°13' W 061°57'7 7.5
2017-Mar-30 06:34N 16°18' W 062°02'7 6.5
2017-Mar-30 05:34N 16°23' W 062°06'7 6.9
2017-Mar-30 04:33N 16°29' W 062°10'7 7.2
2017-Mar-30 03:33N 16°34' W 062°15'7 7.2
2017-Mar-30 02:33N 16°40' W 062°19'8 7.6
2017-Mar-30 01:34N 16°46' W 062°24'9 7.5
2017-Mar-30 00:18N 16°53' W 062°30'34 2.1
2017-Mar-29 08:10N 17°20' W 062°53'25 6.5
2017-Mar-29 04:22N 17°45' W 062°54'  
Track history (hours):
 
Tides and Currents Weather Stations Pressure Air Temp Water Temp Dewpoint Dewpoint Depression Visibility Wind Speed Wind Dir Waves Ship Positions

Seadream 1

Last reported at 2017-Mar-30 15:11 UTC. Time now 2017-Apr-25 12:32 UTC.
Position N 15°52' W 061°35'.
Warning: this ship's position is 25 days out of date.

Length 105 m; draft 4.3 m.

Type: Ship. MMSI: 308908000.

Date/timePositionNaut miles runAvg speedWind from/ knotsBaromVisibWave heightAir tempDewpointWater temp
2017-Mar-30 15:11N 15°52' W 061°35'0 0.0
2017-Mar-30 12:31N 15°52' W 061°35'7 3.6
2017-Mar-30 10:29N 15°55' W 061°42'7 7.8
2017-Mar-30 09:33N 16°01' W 061°47'8 7.4
2017-Mar-30 08:29N 16°07' W 061°52'7 7.2
2017-Mar-30 07:28N 16°13' W 061°57'7 7.5
2017-Mar-30 06:34N 16°18' W 062°02'7 6.5
2017-Mar-30 05:34N 16°23' W 062°06'7 6.9
2017-Mar-30 04:33N 16°29' W 062°10'7 7.2
2017-Mar-30 03:33N 16°34' W 062°15'7 7.2
2017-Mar-30 02:33N 16°40' W 062°19'8 7.6
2017-Mar-30 01:34N 16°46' W 062°24'9 7.5
2017-Mar-30 00:18N 16°53' W 062°30'34 2.1
2017-Mar-29 08:10N 17°20' W 062°53'25 6.5
2017-Mar-29 04:22N 17°45' W 062°54'  

Dump ship's entire track history